Scotland, TX (76379)

10:13 PM CDT on September 21, 2014 (GMT -0500)
Parker Rd | Change Station
CLOSE
Current Station
Personal Weather Station
Location: Wichita Falls, TX
Elevation: 1030 ft
Nearby Weather Stations

Elev 1030 ft 33.80 °N, 98.54 °W | Updated 3 minutes ago

Partly Cloudy
Partly Cloudy
77.0 °F
Feels Like 79 °F
N
6.8
Wind Variable Wind from NNE

Today
High -- | Low -- °F
--% Chance of Precip.
Yesterday
High -- | Low -- °F
Precip. -- in
7:21 AM 7:31 PM
Waning Crescent, 4% visible
Pressure 30.15 in
Visibility 10.0 miles
Clouds Clear
Heat Index 79 °F
Dew Point 70 °F
Humidity 78%
Rainfall 0.00 in
Snow Depth Not available.
UV 0 out of 12
Pollen 10.20 out of 12
Air Quality Not available.
Flu Activity Not available.
METAR KCWC 220255Z AUTO 04012G17KT 10SM CLR 25/20 A3015 RMK AO2 T02500200

More Conditions Fewer Conditions

Pressure 30.15 in
Visibility 10.0 miles
Clouds Clear
Heat Index 79 °F
Dew Point 70 °F
Humidity 78%
Rainfall 0.00 in
Snow Depth Not available.
UV 0 out of 12
Pollen 10.20 out of 12
Air Quality Not available.
Flu Activity Not available.
METAR KCWC 220255Z AUTO 04012G17KT 10SM CLR 25/20 A3015 RMK AO2 T02500200

More Conditions Fewer Conditions

10-Day Weather Forecast

Almanac

Astronomy

Sep. 21, 2014 Rise Set
Actual Time 7:21 AM CDT 7:31 PM CDT
Civil Twilight 6:56 AM CDT 7:56 PM CDT
Nautical Twilight 6:27 AM CDT 8:25 PM CDT
Astronomical Twilight 5:57 AM CDT 8:55 PM CDT
Moon 5:01 AM CDT (9/21) 6:04 PM CDT (9/21)
Length of Visible Light 13h 00m
Length of Day
12h 10m
Tomorrow will be 2m 5s shorter.
Waning Crescent, 4% of the Moon is Illuminated
Today
Waning Crescent
Sep 24
New
Oct 1
First Quarter
Oct 8
Full
Oct 15
Last Quarter

Today's Extremes

State Highs State Lows

Community

WunderPhotos

Upload Photos

1,755,371 photos uploaded!

WunderBlogs® & News

Nearby

Snow Depth

Station Depth Elevation
No new snow has been reported.

Earthquake Activity

City Distance Mag. Time & Date
Jones, Oklahoma 148 miles 2.8 1:13 AM CDT
2014-09-19
Minimum magnitude displayed is 2.5.

Coastal Water Temperatures

Place Temperature
No Stations Reporting

Nearby Weather Stations